createdAt,value
2023-05-06T00:01:47.666Z,11.30
2023-05-06T00:04:17.046Z,11.30
2023-05-06T00:06:45.916Z,11.30
2023-05-06T00:09:14.570Z,11.30
2023-05-06T00:11:44.794Z,11.40
2023-05-06T00:14:14.239Z,11.40
2023-05-06T00:16:43.839Z,11.40
2023-05-06T00:19:14.362Z,11.40
2023-05-06T00:21:42.854Z,11.40
2023-05-06T00:24:11.488Z,11.40
2023-05-06T00:26:41.307Z,11.40
2023-05-06T00:29:09.979Z,11.40
2023-05-06T00:31:38.394Z,11.40
2023-05-06T00:34:09.197Z,11.40
2023-05-06T00:36:43.030Z,11.40
2023-05-06T00:39:11.633Z,11.40
2023-05-06T00:41:43.128Z,11.40
2023-05-06T00:44:12.788Z,11.40
2023-05-06T00:46:41.969Z,11.30
2023-05-06T00:49:11.366Z,11.30
2023-05-06T00:51:42.023Z,11.30
2023-05-06T00:54:15.568Z,11.30
2023-05-06T00:56:45.624Z,11.20
2023-05-06T01:02:24.642Z,11.10
2023-05-06T01:04:57.313Z,11.00
2023-05-06T01:07:34.434Z,10.90
2023-05-06T01:10:10.480Z,10.80
2023-05-06T01:12:45.450Z,10.80
2023-05-06T01:15:18.547Z,10.60
2023-05-06T01:17:50.322Z,10.60
2023-05-06T01:20:22.051Z,10.50
2023-05-06T01:22:53.450Z,10.50
2023-05-06T01:25:24.414Z,10.50
2023-05-06T01:27:53.045Z,10.50
2023-05-06T01:30:23.938Z,10.60
2023-05-06T01:33:05.184Z,10.60
2023-05-06T01:35:41.974Z,10.70
2023-05-06T01:38:18.769Z,10.70
2023-05-06T01:40:54.692Z,10.80
2023-05-06T01:43:25.362Z,10.90
2023-05-06T01:45:57.185Z,11.00
2023-05-06T01:48:30.233Z,11.00
2023-05-06T01:50:59.729Z,11.00
2023-05-06T01:53:28.523Z,11.00
2023-05-06T01:56:01.092Z,11.00
2023-05-06T01:58:29.484Z,11.00
2023-05-06T02:00:58.423Z,10.90
2023-05-06T02:03:29.315Z,10.90
2023-05-06T02:06:00.613Z,10.80
2023-05-06T02:08:32.658Z,10.70
2023-05-06T02:11:03.955Z,10.60
2023-05-06T02:13:35.684Z,10.50
2023-05-06T02:16:04.913Z,10.30
2023-05-06T02:18:34.444Z,10.30
2023-05-06T02:21:03.551Z,10.20
2023-05-06T02:23:31.942Z,10.00
2023-05-06T02:26:00.464Z,9.90
2023-05-06T02:28:32.892Z,9.90
2023-05-06T02:31:01.729Z,9.80
2023-05-06T02:33:32.240Z,9.80
2023-05-06T02:36:01.927Z,9.60
2023-05-06T02:38:30.787Z,9.60
2023-05-06T02:40:59.057Z,9.50
2023-05-06T02:43:30.033Z,9.50
2023-05-06T02:45:59.754Z,9.40
2023-05-06T02:48:28.418Z,9.30
2023-05-06T02:50:59.254Z,9.20
2023-05-06T02:53:28.047Z,9.20
2023-05-06T02:55:57.210Z,9.10
2023-05-06T02:58:26.423Z,9.00
2023-05-06T03:00:56.827Z,9.00
2023-05-06T03:03:25.939Z,9.00
2023-05-06T03:05:54.627Z,8.90
2023-05-06T03:08:24.393Z,8.90
2023-05-06T03:10:53.965Z,8.80
2023-05-06T03:13:22.520Z,8.80
2023-05-06T03:15:54.320Z,8.80
2023-05-06T03:18:24.876Z,8.70
2023-05-06T03:20:53.722Z,8.70
2023-05-06T03:23:22.333Z,8.60
2023-05-06T03:25:51.436Z,8.60
2023-05-06T03:28:22.344Z,8.60
2023-05-06T03:30:52.036Z,8.60
2023-05-06T03:33:21.656Z,8.50
2023-05-06T03:35:51.472Z,8.50
2023-05-06T03:38:20.058Z,8.50
2023-05-06T03:40:55.814Z,8.40
2023-05-06T03:43:24.674Z,8.50
2023-05-06T03:45:58.062Z,8.40
2023-05-06T03:48:26.547Z,8.40
2023-05-06T03:50:57.902Z,8.40
2023-05-06T03:53:27.108Z,8.40
2023-05-06T03:55:55.962Z,8.40
2023-05-06T03:58:24.831Z,8.30
2023-05-06T04:00:55.062Z,8.30
2023-05-06T04:03:23.535Z,8.20
2023-05-06T04:05:53.709Z,8.20
2023-05-06T04:08:28.210Z,8.10
2023-05-06T04:10:57.758Z,8.10
2023-05-06T04:13:32.858Z,8.10
2023-05-06T04:16:05.565Z,8.10
2023-05-06T04:18:41.176Z,8.10
2023-05-06T04:21:15.532Z,8.10
2023-05-06T04:23:50.941Z,8.10
2023-05-06T04:26:23.722Z,8.10
2023-05-06T04:28:52.483Z,8.20
2023-05-06T04:31:21.152Z,8.20
2023-05-06T04:33:53.615Z,8.30
2023-05-06T04:36:25.785Z,8.30
2023-05-06T04:39:18.236Z,8.30
2023-05-06T04:41:49.141Z,8.40
2023-05-06T04:44:22.864Z,8.40
2023-05-06T04:46:55.626Z,8.50
2023-05-06T04:49:24.342Z,8.60
2023-05-06T04:51:53.798Z,8.70
2023-05-06T04:54:25.973Z,8.70
2023-05-06T04:56:54.961Z,8.80
2023-05-06T04:59:24.406Z,8.90
2023-05-06T05:01:54.124Z,9.00
2023-05-06T05:04:22.482Z,9.10
2023-05-06T05:06:51.576Z,9.20
2023-05-06T05:09:20.511Z,9.30
2023-05-06T05:11:52.242Z,9.40
2023-05-06T05:14:21.812Z,9.50
2023-05-06T05:16:50.427Z,9.60
2023-05-06T05:19:25.045Z,9.60
2023-05-06T05:21:55.043Z,9.70
2023-05-06T05:24:27.560Z,9.80
2023-05-06T05:26:57.510Z,9.90
2023-05-06T05:29:27.281Z,10.00
2023-05-06T05:31:59.335Z,10.10
2023-05-06T05:34:28.531Z,10.10
2023-05-06T05:36:58.549Z,10.30
2023-05-06T05:39:27.562Z,10.30
2023-05-06T05:41:57.682Z,10.40
2023-05-06T05:44:28.593Z,10.50
2023-05-06T05:46:57.797Z,10.50
2023-05-06T05:49:27.901Z,10.60
2023-05-06T05:52:00.626Z,10.70
2023-05-06T05:54:32.254Z,10.70
2023-05-06T05:57:02.765Z,10.80
2023-05-06T05:59:34.100Z,10.90
2023-05-06T06:02:08.158Z,11.00
2023-05-06T06:04:39.037Z,11.10
2023-05-06T06:07:07.431Z,11.20
2023-05-06T06:09:39.756Z,11.20
2023-05-06T06:12:10.207Z,11.30
2023-05-06T06:14:41.572Z,11.40
2023-05-06T06:17:12.205Z,11.50
2023-05-06T06:19:41.135Z,11.50
2023-05-06T06:22:09.434Z,11.60
2023-05-06T06:24:39.115Z,11.70
2023-05-06T06:27:11.214Z,11.80
2023-05-06T06:29:39.467Z,11.80
2023-05-06T06:32:10.220Z,11.90
2023-05-06T06:34:41.717Z,12.00
2023-05-06T06:37:14.232Z,12.10
2023-05-06T06:39:42.990Z,12.20
2023-05-06T06:42:13.152Z,12.20
2023-05-06T06:44:52.947Z,12.30
2023-05-06T06:47:21.436Z,12.40
2023-05-06T06:49:49.812Z,12.40
2023-05-06T06:52:18.287Z,12.40
2023-05-06T06:54:46.937Z,12.50
2023-05-06T06:57:18.897Z,12.50
2023-05-06T06:59:47.997Z,12.60
2023-05-06T07:02:18.563Z,12.70
2023-05-06T07:04:47.244Z,12.70
2023-05-06T07:07:16.150Z,12.80
2023-05-06T07:09:44.948Z,12.90
2023-05-06T07:12:17.398Z,13.00
2023-05-06T07:14:45.868Z,13.10
2023-05-06T07:17:14.632Z,13.10
2023-05-06T07:19:43.240Z,13.20
2023-05-06T07:22:11.942Z,13.30
2023-05-06T07:24:40.378Z,13.40
2023-05-06T07:27:10.161Z,13.50
2023-05-06T07:29:42.503Z,13.60
2023-05-06T07:32:11.093Z,13.60
2023-05-06T07:34:39.939Z,13.70
2023-05-06T07:37:09.183Z,13.70
2023-05-06T07:39:38.436Z,13.80
2023-05-06T07:42:13.014Z,13.80
2023-05-06T07:44:46.791Z,13.70
2023-05-06T07:47:32.573Z,13.80
2023-05-06T07:50:01.339Z,13.90
2023-05-06T07:52:31.848Z,14.00
2023-05-06T07:55:00.866Z,14.00
2023-05-06T07:57:29.489Z,14.20
2023-05-06T08:00:00.295Z,14.30
2023-05-06T08:02:30.636Z,14.40
2023-05-06T08:04:59.328Z,14.50
2023-05-06T08:07:28.007Z,14.50
2023-05-06T08:09:56.726Z,14.50
2023-05-06T08:12:25.299Z,14.60
2023-05-06T08:14:56.660Z,14.80
2023-05-06T08:17:26.636Z,14.90
2023-05-06T08:19:55.713Z,14.90
2023-05-06T08:22:24.270Z,15.10
2023-05-06T08:25:01.236Z,15.10
2023-05-06T08:27:29.707Z,15.20
2023-05-06T08:30:00.943Z,15.30
2023-05-06T08:32:31.573Z,15.30
2023-05-06T08:35:01.305Z,15.30
2023-05-06T08:37:31.898Z,15.40
2023-05-06T08:40:02.519Z,15.50
2023-05-06T08:42:32.047Z,15.50
2023-05-06T08:45:02.642Z,15.50
2023-05-06T08:47:33.123Z,15.60
2023-05-06T08:50:02.696Z,15.70
2023-05-06T08:52:32.987Z,15.80
2023-05-06T08:55:05.262Z,16.00
2023-05-06T08:57:34.920Z,16.10
2023-05-06T09:00:05.257Z,16.30
2023-05-06T09:02:37.134Z,16.40
2023-05-06T09:05:11.380Z,16.50
2023-05-06T09:07:40.268Z,16.60
2023-05-06T09:10:14.104Z,16.70
2023-05-06T09:12:42.978Z,16.90
2023-05-06T09:15:12.485Z,17.00
2023-05-06T09:17:42.480Z,17.10
2023-05-06T09:20:15.909Z,17.30
2023-05-06T09:22:45.739Z,17.30
2023-05-06T09:25:16.216Z,17.50
2023-05-06T09:27:44.775Z,17.70
2023-05-06T09:30:14.135Z,17.80
2023-05-06T09:32:49.992Z,17.90
2023-05-06T09:35:18.982Z,18.00
2023-05-06T09:37:47.429Z,17.90
2023-05-06T09:40:17.027Z,18.00
2023-05-06T09:42:46.606Z,18.10
2023-05-06T09:45:18.209Z,18.10
2023-05-06T09:47:50.172Z,18.20
2023-05-06T09:50:19.220Z,18.40
2023-05-06T09:52:49.317Z,18.50
2023-05-06T09:55:19.860Z,18.60
2023-05-06T09:57:50.042Z,18.60
2023-05-06T10:00:27.134Z,18.70
2023-05-06T10:03:00.730Z,18.80
2023-05-06T10:05:32.749Z,19.00
2023-05-06T10:08:04.189Z,19.00
2023-05-06T10:10:36.673Z,19.00
2023-05-06T10:13:06.851Z,19.10
2023-05-06T10:15:37.006Z,19.30
2023-05-06T10:18:08.741Z,19.30
2023-05-06T10:20:44.288Z,19.40
2023-05-06T10:23:27.559Z,19.60
2023-05-06T10:26:01.134Z,19.70
2023-05-06T10:28:32.134Z,19.70
2023-05-06T10:31:14.252Z,19.50
2023-05-06T10:33:51.895Z,19.70
2023-05-06T10:36:24.926Z,19.80
2023-05-06T10:38:56.555Z,19.80
2023-05-06T10:41:28.218Z,19.80
2023-05-06T10:44:00.329Z,19.90
2023-05-06T10:46:32.787Z,20.10
2023-05-06T10:49:21.273Z,20.20
2023-05-06T10:52:15.436Z,20.10
2023-05-06T10:54:51.927Z,20.10
2023-05-06T10:57:29.148Z,20.30
2023-05-06T10:59:59.645Z,20.50
2023-05-06T11:02:32.795Z,20.60
2023-05-06T11:05:07.520Z,20.80
2023-05-06T11:07:37.836Z,20.80
2023-05-06T11:10:11.916Z,20.70
2023-05-06T11:12:49.590Z,20.80
2023-05-06T11:15:37.644Z,20.90
2023-05-06T11:18:39.657Z,21.10
2023-05-06T11:21:47.911Z,21.30
2023-05-06T11:24:31.450Z,21.30
2023-05-06T11:27:01.767Z,21.30
2023-05-06T11:29:30.492Z,20.90
2023-05-06T11:32:00.926Z,20.80
2023-05-06T11:34:31.515Z,21.00
2023-05-06T11:37:04.020Z,21.20
2023-05-06T11:39:40.605Z,21.50
2023-05-06T11:42:10.031Z,21.40
2023-05-06T11:44:40.601Z,21.50
2023-05-06T11:47:10.626Z,21.50
2023-05-06T11:49:40.208Z,21.80
2023-05-06T11:52:12.291Z,21.80
2023-05-06T11:54:43.081Z,22.10
2023-05-06T11:57:16.928Z,22.00
2023-05-06T11:59:45.432Z,22.10
2023-05-06T12:02:16.204Z,22.00
2023-05-06T12:04:46.506Z,21.80
2023-05-06T12:07:17.579Z,21.50
2023-05-06T12:09:48.752Z,21.50
2023-05-06T12:12:22.464Z,21.60
2023-05-06T12:14:55.403Z,21.60
2023-05-06T12:17:24.714Z,21.60
2023-05-06T12:19:53.223Z,21.70
2023-05-06T12:22:24.986Z,21.80
2023-05-06T12:24:53.677Z,22.30
2023-05-06T12:27:32.904Z,21.80
2023-05-06T12:30:04.104Z,22.30
2023-05-06T12:32:33.136Z,22.70
2023-05-06T12:35:05.786Z,22.70
2023-05-06T12:37:36.260Z,23.20
2023-05-06T12:40:05.045Z,23.50
2023-05-06T12:42:33.594Z,24.00
2023-05-06T12:45:14.954Z,24.00
2023-05-06T12:47:54.842Z,23.20
2023-05-06T12:50:33.323Z,23.30
2023-05-06T12:53:06.534Z,23.70
2023-05-06T12:55:35.964Z,23.90
2023-05-06T12:58:04.394Z,24.00
2023-05-06T13:00:33.191Z,23.40
2023-05-06T13:03:01.820Z,23.30
2023-05-06T13:05:30.346Z,23.10
2023-05-06T13:07:58.444Z,23.00
2023-05-06T13:10:28.457Z,23.00
2023-05-06T13:12:58.395Z,23.00
2023-05-06T13:15:29.449Z,22.90
2023-05-06T13:18:00.820Z,22.80
2023-05-06T13:20:29.237Z,22.70
2023-05-06T13:22:58.587Z,22.80
2023-05-06T13:25:28.770Z,22.70
2023-05-06T13:27:59.002Z,22.70
2023-05-06T13:30:27.338Z,22.60
2023-05-06T13:32:57.911Z,22.70
2023-05-06T13:35:26.414Z,23.10
2023-05-06T13:37:55.631Z,23.30
2023-05-06T13:40:24.319Z,23.20
2023-05-06T13:42:56.919Z,23.40
2023-05-06T13:45:29.193Z,23.40
2023-05-06T13:48:00.539Z,23.00
2023-05-06T13:50:30.348Z,22.60
2023-05-06T13:52:58.913Z,22.60
2023-05-06T13:55:28.661Z,22.70
2023-05-06T13:57:59.112Z,22.80
2023-05-06T14:00:27.596Z,22.60
2023-05-06T14:02:56.165Z,22.70
2023-05-06T14:05:25.136Z,22.80
2023-05-06T14:07:53.895Z,22.90
2023-05-06T14:10:22.721Z,22.70
2023-05-06T14:12:53.430Z,22.60
2023-05-06T14:15:23.330Z,22.60
2023-05-06T14:17:52.013Z,22.50
2023-05-06T14:20:20.624Z,22.10
2023-05-06T14:22:52.048Z,21.80
2023-05-06T14:25:26.900Z,21.70
2023-05-06T14:27:57.992Z,21.60
2023-05-06T14:30:28.048Z,21.60
2023-05-06T14:32:57.045Z,21.40
2023-05-06T14:35:25.359Z,21.50
2023-05-06T14:37:54.611Z,21.50
2023-05-06T14:40:22.953Z,21.40
2023-05-06T14:42:53.825Z,21.20
2023-05-06T14:45:23.894Z,21.20
2023-05-06T14:47:55.140Z,21.10
2023-05-06T14:50:24.111Z,20.90
2023-05-06T14:52:52.775Z,20.90
2023-05-06T14:55:21.912Z,20.90
2023-05-06T14:57:51.020Z,20.90
2023-05-06T15:00:20.599Z,20.80
2023-05-06T15:02:49.240Z,20.90
2023-05-06T15:05:20.023Z,20.90
2023-05-06T15:07:48.683Z,20.90
2023-05-06T15:10:17.704Z,20.90
2023-05-06T15:12:46.543Z,20.90
2023-05-06T15:15:14.998Z,20.90
2023-05-06T15:17:43.599Z,20.90
2023-05-06T15:20:13.736Z,21.00
2023-05-06T15:22:43.768Z,21.20
2023-05-06T15:25:26.576Z,21.30
2023-05-06T15:28:02.677Z,21.20
2023-05-06T15:30:31.164Z,21.20
2023-05-06T15:32:59.662Z,21.20
2023-05-06T15:35:28.499Z,21.10
2023-05-06T15:38:00.174Z,21.10
2023-05-06T15:40:29.204Z,21.00
2023-05-06T15:42:59.791Z,21.00
2023-05-06T15:45:28.647Z,20.90
2023-05-06T15:48:00.006Z,20.90
2023-05-06T15:50:33.351Z,21.00
2023-05-06T15:53:04.581Z,21.00
2023-05-06T15:55:41.593Z,21.00
2023-05-06T15:58:13.906Z,21.00
2023-05-06T16:00:42.161Z,20.90
2023-05-06T16:03:12.564Z,21.00
2023-05-06T16:05:42.306Z,20.90
2023-05-06T16:08:12.515Z,20.90
2023-05-06T16:10:41.139Z,20.80
2023-05-06T16:13:10.340Z,20.70
2023-05-06T16:15:38.893Z,20.70
2023-05-06T16:18:07.437Z,20.60
2023-05-06T16:20:35.850Z,20.50
2023-05-06T16:23:04.295Z,20.40
2023-05-06T16:25:35.280Z,20.40
2023-05-06T16:28:04.192Z,20.20
2023-05-06T16:30:32.944Z,20.10
2023-05-06T16:33:02.035Z,20.00
2023-05-06T16:35:30.455Z,19.80
2023-05-06T16:37:58.754Z,19.70
2023-05-06T16:40:27.760Z,19.60
2023-05-06T16:42:57.785Z,19.50
2023-05-06T16:45:26.142Z,19.40
2023-05-06T16:47:55.915Z,19.30
2023-05-06T16:50:24.695Z,19.30
2023-05-06T16:52:54.259Z,19.20
2023-05-06T16:55:23.189Z,19.20
2023-05-06T16:57:51.815Z,19.10
2023-05-06T17:00:23.650Z,19.10
2023-05-06T17:02:52.337Z,19.10
2023-05-06T17:05:22.225Z,19.10
2023-05-06T17:07:51.118Z,19.10
2023-05-06T17:10:21.453Z,19.10
2023-05-06T17:12:50.550Z,19.00
2023-05-06T17:15:19.529Z,19.00
2023-05-06T17:17:52.437Z,19.00
2023-05-06T17:20:21.478Z,19.00
2023-05-06T17:22:50.225Z,19.10
2023-05-06T17:25:19.135Z,19.10
2023-05-06T17:27:48.434Z,19.10
2023-05-06T17:30:17.547Z,19.10
2023-05-06T17:32:46.621Z,19.10
2023-05-06T17:35:16.799Z,19.10
2023-05-06T17:37:47.001Z,19.10
2023-05-06T17:40:16.294Z,19.10
2023-05-06T17:42:44.635Z,19.00
2023-05-06T17:45:13.974Z,19.00
2023-05-06T17:47:42.445Z,19.00
2023-05-06T17:50:14.142Z,19.00
2023-05-06T17:52:43.954Z,18.90
2023-05-06T17:55:16.925Z,18.80
2023-05-06T17:57:45.866Z,18.70
2023-05-06T18:00:16.425Z,18.60
2023-05-06T18:02:45.130Z,18.50
2023-05-06T18:05:14.552Z,18.50
2023-05-06T18:07:44.329Z,18.40
2023-05-06T18:10:12.805Z,18.20
2023-05-06T18:12:45.280Z,18.10
2023-05-06T18:15:15.423Z,18.10
2023-05-06T18:17:44.149Z,17.90
2023-05-06T18:20:14.448Z,17.80
2023-05-06T18:22:45.153Z,17.70
2023-05-06T18:25:13.782Z,17.60
2023-05-06T18:27:43.757Z,17.60
2023-05-06T18:30:13.254Z,17.40
2023-05-06T18:32:42.291Z,17.30
2023-05-06T18:35:11.722Z,17.20
2023-05-06T18:37:40.574Z,17.10
2023-05-06T18:40:13.805Z,17.00
2023-05-06T18:42:42.311Z,16.90
2023-05-06T18:45:12.049Z,16.80
2023-05-06T18:47:41.977Z,16.70
2023-05-06T18:50:11.335Z,16.60
2023-05-06T18:52:41.026Z,16.50
2023-05-06T18:55:13.732Z,16.40
2023-05-06T18:57:42.896Z,16.30
2023-05-06T19:00:13.554Z,16.30
2023-05-06T19:02:44.445Z,16.20
2023-05-06T19:05:13.467Z,16.10
2023-05-06T19:07:42.944Z,16.00
2023-05-06T19:10:14.152Z,15.90
2023-05-06T19:12:43.295Z,15.80
2023-05-06T19:15:14.576Z,15.80
2023-05-06T19:17:43.632Z,15.70
2023-05-06T19:20:14.567Z,15.60
2023-05-06T19:22:43.785Z,15.60
2023-05-06T19:25:14.408Z,15.60
2023-05-06T19:27:42.796Z,15.50
2023-05-06T19:30:12.227Z,15.50
2023-05-06T19:32:45.433Z,15.40
2023-05-06T19:35:16.289Z,15.40
2023-05-06T19:37:44.785Z,15.30
2023-05-06T19:40:15.087Z,15.20
2023-05-06T19:42:44.245Z,15.10
2023-05-06T19:45:16.778Z,15.00
2023-05-06T19:47:47.742Z,14.90
2023-05-06T19:50:16.390Z,14.80
2023-05-06T19:52:47.686Z,14.70
2023-05-06T19:55:20.117Z,14.60
2023-05-06T19:57:48.900Z,14.50
2023-05-06T20:00:19.430Z,14.40
2023-05-06T20:02:48.131Z,14.40
2023-05-06T20:05:16.800Z,14.30
2023-05-06T20:07:46.056Z,14.20
2023-05-06T20:10:17.363Z,14.20
2023-05-06T20:12:48.266Z,14.10
2023-05-06T20:15:17.000Z,14.10
2023-05-06T20:17:45.915Z,14.10
2023-05-06T20:20:15.524Z,14.10
2023-05-06T20:22:45.283Z,14.00
2023-05-06T20:25:17.805Z,14.00
2023-05-06T20:27:47.907Z,14.00
2023-05-06T20:30:18.767Z,14.00
2023-05-06T20:32:49.511Z,13.90
2023-05-06T20:35:19.495Z,13.90
2023-05-06T20:37:47.872Z,13.90
2023-05-06T20:40:16.669Z,13.80
2023-05-06T20:42:44.977Z,13.80
2023-05-06T20:45:15.001Z,13.80
2023-05-06T20:47:43.398Z,13.70
2023-05-06T20:50:16.888Z,13.70
2023-05-06T20:52:46.169Z,13.60
2023-05-06T20:55:16.135Z,13.50
2023-05-06T20:57:45.420Z,13.50
2023-05-06T21:00:16.613Z,13.40
2023-05-06T21:02:46.093Z,13.40
2023-05-06T21:05:16.317Z,13.30
2023-05-06T21:07:44.735Z,13.30
2023-05-06T21:10:13.502Z,13.30
2023-05-06T21:12:48.737Z,13.20
2023-05-06T21:15:19.788Z,13.20
2023-05-06T21:17:48.596Z,13.10
2023-05-06T21:20:17.456Z,13.10
2023-05-06T21:22:45.796Z,13.10
2023-05-06T21:25:14.318Z,13.00
2023-05-06T21:27:43.106Z,13.00
2023-05-06T21:30:12.166Z,12.90
2023-05-06T21:32:42.435Z,12.90
2023-05-06T21:35:11.401Z,12.80
2023-05-06T21:37:40.296Z,12.80
2023-05-06T21:40:10.038Z,12.70
2023-05-06T21:42:38.154Z,12.60
2023-05-06T21:45:09.114Z,12.60
2023-05-06T21:47:38.190Z,12.50
2023-05-06T21:50:11.619Z,12.50
2023-05-06T21:52:41.216Z,12.40
2023-05-06T21:55:11.249Z,12.40
2023-05-06T21:57:40.519Z,12.30
2023-05-06T22:00:12.295Z,12.30
2023-05-06T22:02:47.919Z,12.20
2023-05-06T22:05:18.333Z,12.20
2023-05-06T22:07:47.215Z,12.20
2023-05-06T22:10:15.621Z,12.20
2023-05-06T22:12:44.277Z,12.20
2023-05-06T22:15:14.869Z,12.20
2023-05-06T22:17:43.915Z,12.20
2023-05-06T22:20:13.481Z,12.20
2023-05-06T22:22:43.443Z,12.20
2023-05-06T22:25:12.340Z,12.10
2023-05-06T22:27:41.751Z,12.10
2023-05-06T22:30:11.708Z,12.10
2023-05-06T22:32:41.054Z,12.10
2023-05-06T22:35:10.526Z,12.10
2023-05-06T22:37:39.387Z,12.10
2023-05-06T22:40:13.294Z,12.00
2023-05-06T22:42:45.770Z,12.00
2023-05-06T22:45:18.567Z,12.00
2023-05-06T22:47:47.745Z,11.90
2023-05-06T22:50:16.346Z,11.90
2023-05-06T22:52:49.961Z,11.90
2023-05-06T22:55:20.212Z,11.80
2023-05-06T22:57:53.902Z,11.80
2023-05-06T23:00:22.986Z,11.80
2023-05-06T23:02:51.659Z,11.70
2023-05-06T23:05:20.239Z,11.60
2023-05-06T23:07:49.810Z,11.60
2023-05-06T23:10:19.959Z,11.50
2023-05-06T23:12:49.736Z,11.50
2023-05-06T23:15:18.589Z,11.50
2023-05-06T23:17:49.826Z,11.40
2023-05-06T23:20:18.315Z,11.40
2023-05-06T23:22:48.300Z,11.40
2023-05-06T23:25:21.334Z,11.40
2023-05-06T23:27:50.103Z,11.40
2023-05-06T23:30:18.690Z,11.40
2023-05-06T23:32:47.365Z,11.30
2023-05-06T23:35:16.173Z,11.20
2023-05-06T23:37:45.749Z,11.20
2023-05-06T23:40:15.365Z,11.20
2023-05-06T23:42:46.030Z,11.10
2023-05-06T23:45:14.488Z,11.10
2023-05-06T23:47:43.164Z,11.10
2023-05-06T23:50:12.758Z,11.10
2023-05-06T23:52:41.972Z,11.00
2023-05-06T23:55:11.202Z,11.00
2023-05-06T23:57:41.447Z,10.90
